Midland International Airport

Airport
ICAO code: 
KMAF
Summary
ICAO Region: 
NAM
Territory: 
Location: 
Midland, Texas,
Coordinates: 
Aerial View: 
31° 56' 13.89" N, 102° 12' 27.939" W
Airport LOS: 
Parallel Runway Operation
Airport WX: 
Sand Storm
Metar
Observation
KMAF 040653Z AUTO 33009KT 10SM CLR 10/M03 A3005 RMK AO2 SLP143 T01001033 $
Station
Midland, Midland International Airport
Date/Time
2021-12-04 06:53:00
Wind direction
330°
Wind speed
09 kts
Lowest cloud amount
n/a
Temperature
10°C
Dew point
-3.3°C
Humidity
39%
Weather condition
n/a

Description

Midland International Airport is a public use airport located 15 km southwest of the central business district of Midland, a city in Midland County, Texas.

Climatology

Hot, semi-arid/Steppe climate (Köppen climate classification BSh) - hot, sometimes extremely hot summers and mild to warm winters, with low annual precipitation.

Runways

Designator Length Width Surface Rops
16L/34R 1323 30 ASP Yes/Yes
4/22 1404 23 ASP Yes/Yes
10/28 2530 46 ASP Yes/Yes
16R/34L 2896 46 ASP Yes/Yes
Airport map: 
Aerial View: 

SKYbrary Partners:

Safety knowledge contributed by: